Time;durP1;ratioP1;P1;durP2;ratioP2;P2;SDS_P1;SDS_P2;PMS_P1;PMS_P2;Temp;Humidity;BMP_temperature;BMP_pressure;BME280_temperature;BME280_humidity;BME280_pressure;Samples;Min_cycle;Max_cycle;Signal;HPM_P1;HPM_P2
2024/02/16 00:00:39;;;;;;;19.40;9.80;;;;;;;-6.07;100.00;140805.03;107022;1272;25349;-67
2024/02/16 00:03:26;;;;;;;17.60;9.60;;;;;;;-6.06;100.00;140806.25;107043;1272;22577;-66
2024/02/16 00:06:13;;;;;;;20.00;9.20;;;;;;;-6.05;100.00;140809.97;107049;1272;22519;-66
2024/02/16 00:09:01;;;;;;;15.00;8.70;;;;;;;-6.03;100.00;140814.66;107084;1272;22532;-67
2024/02/16 00:11:50;;;;;;;15.30;8.30;;;;;;;-6.03;100.00;140813.91;107029;1273;22519;-65
2024/02/16 00:14:37;;;;;;;29.50;8.70;;;;;;;-6.06;100.00;140808.47;107033;1273;25359;-66
2024/02/16 00:17:26;;;;;;;14.30;7.00;;;;;;;-6.09;100.00;140799.58;107074;1273;24295;-63
2024/02/16 00:20:13;;;;;;;18.40;9.30;;;;;;;-6.13;100.00;140790.92;107044;1272;25233;-66
2024/02/16 00:23:00;;;;;;;18.30;9.40;;;;;;;-6.14;100.00;140787.72;107113;1272;22516;-63
2024/02/16 00:25:47;;;;;;;17.20;8.60;;;;;;;-6.14;100.00;140788.47;107059;1270;25597;-61
2024/02/16 00:28:34;;;;;;;16.90;8.90;;;;;;;-6.08;100.00;140801.06;107009;1273;22523;-66
2024/02/16 00:31:20;;;;;;;16.90;8.70;;;;;;;-6.05;100.00;140809.47;107163;1273;22514;-70
2024/02/16 00:34:07;;;;;;;25.00;8.90;;;;;;;-6.01;100.00;140819.84;107078;1273;22506;-65
2024/02/16 00:36:54;;;;;;;27.40;9.70;;;;;;;-5.98;100.00;140827.77;107046;1253;24266;-64
2024/02/16 00:39:41;;;;;;;18.40;8.50;;;;;;;-5.95;100.00;140835.41;107141;1272;22517;-67
2024/02/16 00:42:30;;;;;;;19.90;9.50;;;;;;;-5.92;100.00;140841.55;107052;1273;22720;-65
2024/02/16 00:45:17;;;;;;;17.70;9.30;;;;;;;-5.87;100.00;140851.70;107039;1257;25479;-65
2024/02/16 00:48:06;;;;;;;15.20;9.10;;;;;;;-5.85;100.00;140857.14;107055;1273;25278;-66
2024/02/16 00:50:53;;;;;;;21.30;10.40;;;;;;;-5.82;100.00;140864.31;107008;1257;24222;-67
2024/02/16 00:53:39;;;;;;;23.80;12.90;;;;;;;-5.81;100.00;140866.53;107016;1273;22519;-65
2024/02/16 00:56:26;;;;;;;19.20;10.20;;;;;;;-5.78;100.00;140874.94;107040;1273;22514;-61
2024/02/16 00:59:13;;;;;;;25.60;10.60;;;;;;;-5.77;100.00;140877.41;107009;1273;22530;-65
2024/02/16 01:01:59;;;;;;;21.50;11.20;;;;;;;-5.77;100.00;140875.94;107033;1273;25352;-65
2024/02/16 01:04:46;;;;;;;16.30;9.00;;;;;;;-5.77;100.00;140877.17;107027;1256;22516;-67
2024/02/16 01:07:33;;;;;;;15.10;8.10;;;;;;;-5.78;100.00;140873.69;107022;1273;22520;-67
2024/02/16 01:10:20;;;;;;;13.80;7.90;;;;;;;-5.83;100.00;140861.59;107051;1273;25221;-67
2024/02/16 01:13:06;;;;;;;14.70;8.10;;;;;;;-5.86;100.00;140853.42;107048;1273;24893;-64
2024/02/16 01:15:54;;;;;;;16.30;7.70;;;;;;;-5.86;100.00;140854.41;107020;1273;22522;-65
2024/02/16 01:18:41;;;;;;;14.20;7.90;;;;;;;-5.86;100.00;140853.91;107028;1273;25420;-65
2024/02/16 01:21:28;;;;;;;18.80;7.70;;;;;;;-5.90;100.00;140846.50;107016;1272;24269;-63
2024/02/16 01:24:15;;;;;;;18.90;9.10;;;;;;;-5.93;100.00;140840.09;107023;1272;22733;-63
2024/02/16 01:27:02;;;;;;;18.40;9.40;;;;;;;-5.95;100.00;140835.41;107236;1256;22524;-64
2024/02/16 01:29:48;;;;;;;16.10;8.50;;;;;;;-5.94;100.00;140835.66;107034;1272;22541;-66
2024/02/16 01:32:35;;;;;;;16.60;8.40;;;;;;;-5.91;100.00;140843.28;107067;1272;24379;-64
2024/02/16 01:35:22;;;;;;;16.10;8.80;;;;;;;-5.90;100.00;140847.73;107053;1273;25353;-67
2024/02/16 01:38:26;;;;;;;16.10;8.40;;;;;;;-5.84;100.00;140860.59;107038;1273;25278;-67
2024/02/16 01:41:15;;;;;;;15.20;8.40;;;;;;;-5.77;100.00;140876.92;107031;1257;22516;-64
2024/02/16 01:44:02;;;;;;;26.40;8.30;;;;;;;-5.72;100.00;140890.02;107041;1263;22645;-64
2024/02/16 01:46:49;;;;;;;17.10;8.30;;;;;;;-5.68;100.00;140898.92;107034;1273;22529;-61
2024/02/16 01:49:35;;;;;;;17.20;8.50;;;;;;;-5.65;100.00;140906.58;107026;1256;24259;-64
2024/02/16 01:52:22;;;;;;;19.30;8.40;;;;;;;-5.63;100.00;140911.53;107017;1273;25410;-61
2024/02/16 01:55:10;;;;;;;16.10;9.40;;;;;;;-5.63;100.00;140910.05;107083;1273;22532;-65
2024/02/16 01:57:59;;;;;;;16.30;8.20;;;;;;;-5.62;100.00;140913.03;107051;1273;25465;-66
2024/02/16 02:00:45;;;;;;;18.20;9.20;;;;;;;-5.62;100.00;140912.78;110622;1273;22128;-63
2024/02/16 02:03:32;;;;;;;18.10;8.80;;;;;;;-5.65;100.00;140905.59;110644;1273;22116;-63
2024/02/16 02:06:18;;;;;;;24.30;9.70;;;;;;;-5.68;100.00;140898.91;110611;1273;22122;-68
2024/02/16 02:09:05;;;;;;;15.80;8.60;;;;;;;-5.69;100.00;140897.44;110647;1273;22809;-65
2024/02/16 02:11:52;;;;;;;17.40;9.20;;;;;;;-5.65;100.00;140905.34;110574;1273;22128;-65
2024/02/16 02:14:41;;;;;;;19.90;10.80;;;;;;;-5.59;100.00;140921.42;110629;1272;22854;-63
2024/02/16 02:17:27;;;;;;;27.50;13.60;;;;;;;-5.52;100.00;140937.98;110649;1265;22980;-66
2024/02/16 02:20:14;;;;;;;30.40;13.20;;;;;;;-5.47;100.00;140950.11;110585;1273;22159;-64
2024/02/16 02:23:01;;;;;;;34.70;13.40;;;;;;;-5.45;100.00;140955.06;110938;1256;22728;-63
2024/02/16 02:25:48;;;;;;;24.70;12.20;;;;;;;-5.46;100.00;140952.59;110606;1273;22871;-64
2024/02/16 02:28:35;;;;;;;25.00;10.80;;;;;;;-5.46;100.00;140952.09;110585;1273;22156;-67
2024/02/16 02:31:21;;;;;;;26.00;11.90;;;;;;;-5.47;100.00;140951.84;110781;1265;22328;-65
2024/02/16 02:34:07;;;;;;;20.40;11.00;;;;;;;-5.42;100.00;140961.75;110588;1272;22328;-61
2024/02/16 02:36:54;;;;;;;21.80;11.60;;;;;;;-5.36;100.00;140977.06;110617;1272;22150;-60
2024/02/16 02:39:40;;;;;;;22.20;10.50;;;;;;;-5.26;100.00;141000.33;110691;1272;22163;-63
2024/02/16 02:42:27;;;;;;;20.00;9.70;;;;;;;-5.18;100.00;141019.63;110686;1262;22260;-64
2024/02/16 02:45:14;;;;;;;24.10;10.80;;;;;;;-5.13;100.00;141031.00;110608;1272;22172;-67
2024/02/16 02:48:00;;;;;;;27.10;11.10;;;;;;;-5.09;100.00;141042.66;110640;1272;22161;-61
2024/02/16 02:50:46;;;;;;;25.70;10.80;;;;;;;-5.09;100.00;141042.88;110610;1272;22179;-61
2024/02/16 02:53:32;;;;;;;26.20;11.20;;;;;;;-5.13;100.00;141032.25;110600;1273;22121;-62
2024/02/16 02:56:18;;;;;;;23.10;10.40;;;;;;;-5.15;100.00;141027.78;110594;1273;22170;-65
2024/02/16 02:59:05;;;;;;;22.40;10.70;;;;;;;-5.15;100.00;141027.28;110581;1272;22141;-66
2024/02/16 03:01:52;;;;;;;22.70;10.20;;;;;;;-5.14;100.00;141029.28;110776;1268;22109;-64
2024/02/16 03:04:38;;;;;;;24.90;10.40;;;;;;;-5.13;100.00;141032.47;110630;1273;22794;-63
2024/02/16 03:07:25;;;;;;;45.10;11.50;;;;;;;-5.10;100.00;141040.66;110636;1273;22171;-63
2024/02/16 03:10:11;;;;;;;19.20;9.80;;;;;;;-5.09;100.00;141041.91;110575;1273;22909;-65
2024/02/16 03:12:57;;;;;;;20.80;10.00;;;;;;;-5.09;100.00;141042.66;110608;1273;22131;-64
2024/02/16 03:15:44;;;;;;;18.90;10.30;;;;;;;-5.09;100.00;141042.91;110606;1273;22110;-63
2024/02/16 03:18:31;;;;;;;20.30;10.30;;;;;;;-5.09;100.00;141043.41;110573;1273;22835;-64
2024/02/16 03:21:18;;;;;;;24.00;10.20;;;;;;;-5.06;100.00;141050.31;110614;1273;22094;-63
2024/02/16 03:24:04;;;;;;;28.90;10.60;;;;;;;-5.04;100.00;141053.78;110576;1273;22121;-63
2024/02/16 03:26:51;;;;;;;25.60;8.90;;;;;;;-5.01;100.00;141060.44;110584;1273;23018;-61
2024/02/16 03:29:36;;;;;;;22.10;10.40;;;;;;;-5.03;100.00;141056.22;110622;1260;22146;-64
2024/02/16 03:32:23;;;;;;;14.30;9.10;;;;;;;-5.07;100.00;141046.59;110608;1257;22165;-65
2024/02/16 03:35:08;;;;;;;19.40;9.80;;;;;;;-5.13;100.00;141031.98;110593;1273;22115;-63
2024/02/16 03:37:55;;;;;;;19.70;10.10;;;;;;;-5.19;100.00;141017.91;110554;1273;22131;-64
2024/02/16 03:40:42;;;;;;;19.00;9.20;;;;;;;-5.20;100.00;141014.91;110604;1257;22137;-62
2024/02/16 03:43:28;;;;;;;23.90;9.00;;;;;;;-5.23;100.00;141007.50;110681;1263;22140;-68
2024/02/16 03:46:15;;;;;;;18.50;8.60;;;;;;;-5.25;100.00;141002.80;110697;1263;22610;-66
2024/02/16 03:49:01;;;;;;;18.30;8.80;;;;;;;-5.31;100.00;140988.45;110650;1263;22185;-65
2024/02/16 03:51:48;;;;;;;23.00;9.40;;;;;;;-5.35;100.00;140977.33;110644;1272;22123;-60
2024/02/16 03:54:34;;;;;;;17.70;10.00;;;;;;;-5.36;100.00;140974.83;110626;1273;22313;-64
2024/02/16 03:57:20;;;;;;;17.00;8.20;;;;;;;-5.36;100.00;140976.09;110626;1271;22325;-64
2024/02/16 04:00:08;;;;;;;15.40;8.40;;;;;;;-5.37;100.00;140973.34;110628;1273;22888;-62
2024/02/16 04:02:59;;;;;;;21.00;10.20;;;;;;;-5.37;100.00;140972.59;110640;1272;22120;-59
2024/02/16 04:05:45;;;;;;;25.30;9.20;;;;;;;-5.39;100.00;140967.92;111416;1254;22332;-65
2024/02/16 04:08:31;;;;;;;15.50;7.20;;;;;;;-5.42;100.00;140961.73;110662;1272;22847;-63
2024/02/16 04:11:17;;;;;;;19.30;8.60;;;;;;;-5.46;100.00;140953.31;111235;1261;22235;-66
2024/02/16 04:14:03;;;;;;;14.00;8.20;;;;;;;-5.48;100.00;140947.14;110645;1272;22280;-65
2024/02/16 04:16:49;;;;;;;15.20;7.60;;;;;;;-5.52;100.00;140938.00;110621;1272;22406;-64
2024/02/16 04:19:37;;;;;;;15.10;7.80;;;;;;;-5.55;100.00;140929.59;110644;1272;22364;-67
2024/02/16 04:22:24;;;;;;;21.00;8.60;;;;;;;-5.56;100.00;140929.09;110709;1272;22101;-65
2024/02/16 04:25:10;;;;;;;27.10;8.90;;;;;;;-5.57;100.00;140924.14;110649;1272;22113;-66
2024/02/16 04:27:56;;;;;;;23.70;10.70;;;;;;;-5.58;100.00;140924.39;110629;1272;22178;-61
2024/02/16 04:30:42;;;;;;;21.10;10.00;;;;;;;-5.58;100.00;140923.39;110643;1269;22111;-64
2024/02/16 04:33:29;;;;;;;19.90;9.20;;;;;;;-5.56;100.00;140928.09;110664;1273;22835;-64
2024/02/16 04:36:16;;;;;;;18.50;9.90;;;;;;;-5.52;100.00;140937.25;110581;1273;22128;-68
2024/02/16 04:39:03;;;;;;;24.40;8.70;;;;;;;-5.50;100.00;140942.19;110580;1265;22338;-63
2024/02/16 04:41:49;;;;;;;23.50;9.10;;;;;;;-5.50;100.00;140943.67;110580;1270;23091;-65
2024/02/16 04:44:39;;;;;;;22.80;8.90;;;;;;;-5.48;100.00;140947.64;110609;1272;22139;-61
2024/02/16 04:47:25;;;;;;;17.50;9.30;;;;;;;-5.49;100.00;140946.16;110691;1272;23078;-63
2024/02/16 04:50:13;;;;;;;19.50;8.80;;;;;;;-5.50;100.00;140941.94;110748;1263;22117;-65
2024/02/16 04:53:02;;;;;;;18.10;9.30;;;;;;;-5.50;100.00;140943.42;110610;1272;22135;-65
2024/02/16 04:55:49;;;;;;;18.00;9.00;;;;;;;-5.47;100.00;140951.09;110616;1273;22305;-62
2024/02/16 04:58:35;;;;;;;23.00;9.20;;;;;;;-5.42;100.00;140960.75;110543;1273;22140;-63
2024/02/16 05:01:21;;;;;;;26.30;10.00;;;;;;;-5.40;100.00;140966.66;110602;1273;22209;-63
2024/02/16 05:04:08;;;;;;;15.90;8.30;;;;;;;-5.38;100.00;140970.39;110642;1272;23020;-63
2024/02/16 05:06:57;;;;;;;20.50;10.50;;;;;;;-5.39;100.00;140967.91;110630;1266;22111;-61
2024/02/16 05:09:44;;;;;;;15.70;9.20;;;;;;;-5.42;100.00;140960.97;110644;1259;22832;-64
2024/02/16 05:12:30;;;;;;;27.50;10.10;;;;;;;-5.45;100.00;140954.80;110587;1263;23105;-61
2024/02/16 05:15:17;;;;;;;19.60;9.60;;;;;;;-5.48;100.00;140946.91;110554;1273;22129;-62
2024/02/16 05:18:04;;;;;;;28.50;11.30;;;;;;;-5.48;100.00;140948.14;110576;1273;22120;-65
2024/02/16 05:20:50;;;;;;;35.70;10.60;;;;;;;-5.43;100.00;140958.53;110668;1270;22125;-62
2024/02/16 05:23:36;;;;;;;21.50;10.30;;;;;;;-5.40;100.00;140965.22;110595;1273;22216;-68
2024/02/16 05:26:22;;;;;;;18.20;9.80;;;;;;;-5.36;100.00;140975.34;110590;1273;22108;-61
2024/02/16 05:29:09;;;;;;;20.30;10.60;;;;;;;-5.32;100.00;140985.22;110592;1265;22196;-60
2024/02/16 05:31:55;;;;;;;22.90;10.50;;;;;;;-5.28;100.00;140995.38;110719;1268;22121;-64
2024/02/16 05:34:42;;;;;;;21.50;10.60;;;;;;;-5.20;100.00;141014.17;110790;1256;22143;-66
2024/02/16 05:37:28;;;;;;;32.70;11.00;;;;;;;-5.14;100.00;141029.77;110605;1272;22880;-65
2024/02/16 05:40:26;;;;;;;30.60;12.50;;;;;;;-5.09;100.00;141041.41;110717;1273;22131;-67
2024/02/16 05:43:13;;;;;;;22.90;11.00;;;;;;;-5.04;100.00;141055.25;110590;1273;22391;-67
2024/02/16 05:45:59;;;;;;;26.80;12.10;;;;;;;-5.01;100.00;141061.69;110688;1269;22128;-63
2024/02/16 05:48:46;;;;;;;21.60;11.90;;;;;;;-4.98;100.00;141066.39;110645;1266;22155;-64
2024/02/16 05:51:42;;;;;;;30.70;12.60;;;;;;;-4.94;100.00;141077.03;110597;1272;22111;-68
2024/02/16 05:54:29;;;;;;;28.00;12.70;;;;;;;-5.02;100.00;141058.95;110601;1272;22098;-63
2024/02/16 05:57:16;;;;;;;37.20;14.10;;;;;;;-5.25;100.00;141002.30;110632;1272;22102;-66
2024/02/16 06:00:08;;;;;;;31.70;14.00;;;;;;;-5.41;100.00;140964.95;110758;1272;22131;-65
2024/02/16 06:02:54;;;;;;;24.10;12.70;;;;;;;-5.40;100.00;140966.17;110615;1272;22146;-62
2024/02/16 06:05:40;;;;;;;25.90;14.90;;;;;;;-5.48;100.00;140948.13;110669;1272;22201;-61
2024/02/16 06:08:26;;;;;;;29.00;13.70;;;;;;;-5.42;100.00;140960.47;110601;1263;22900;-65
2024/02/16 06:11:16;;;;;;;20.20;12.10;;;;;;;-5.37;100.00;140974.09;110530;1264;22299;-68
2024/02/16 06:14:03;;;;;;;31.90;14.50;;;;;;;-5.42;100.00;140961.97;110532;1260;22334;-67
2024/02/16 06:16:49;;;;;;;30.20;14.50;;;;;;;-5.53;100.00;140935.02;110536;1266;22158;-63
2024/02/16 06:19:36;;;;;;;27.50;14.10;;;;;;;-5.69;100.00;140896.20;110531;1265;22332;-64
2024/02/16 06:22:22;;;;;;;32.00;14.80;;;;;;;-5.86;100.00;140855.89;110544;1261;23008;-65
2024/02/16 06:25:09;;;;;;;33.40;14.60;;;;;;;-6.01;100.00;140820.34;110606;1262;22177;-62
2024/02/16 06:27:55;;;;;;;34.10;16.20;;;;;;;-6.07;100.00;140805.78;110560;1261;22311;-62
2024/02/16 06:30:41;;;;;;;32.50;16.80;;;;;;;-6.06;100.00;140806.50;110583;1263;22488;-65
2024/02/16 06:33:27;;;;;;;38.60;15.70;;;;;;;-6.04;100.00;140810.95;110544;1263;22338;-65
2024/02/16 06:36:14;;;;;;;32.00;16.00;;;;;;;-6.06;100.00;140806.50;110539;1260;22343;-63
2024/02/16 06:39:00;;;;;;;35.40;18.20;;;;;;;-5.98;100.00;140827.25;110613;1273;22162;-62
2024/02/16 06:41:46;;;;;;;27.70;16.80;;;;;;;-5.85;100.00;140858.14;110606;1274;22899;-66
2024/02/16 06:44:33;;;;;;;28.30;16.40;;;;;;;-5.79;100.00;140873.22;110709;1262;22111;-65
2024/02/16 06:47:20;;;;;;;45.70;18.80;;;;;;;-5.81;100.00;140867.03;110583;1271;22129;-66
2024/02/16 06:50:07;;;;;;;47.40;22.90;;;;;;;-5.81;100.00;140866.78;110580;1267;22381;-65
2024/02/16 06:52:55;;;;;;;42.30;22.10;;;;;;;-5.79;100.00;140873.20;110624;1273;22151;-66
2024/02/16 06:55:41;;;;;;;38.80;20.60;;;;;;;-5.72;100.00;140890.27;110697;1253;23119;-66
2024/02/16 06:58:27;;;;;;;41.00;22.70;;;;;;;-5.65;100.00;140905.84;110630;1266;22355;-65
2024/02/16 07:01:14;;;;;;;44.20;23.30;;;;;;;-5.65;100.00;140906.09;110599;1273;22340;-65
2024/02/16 07:04:01;;;;;;;43.40;22.80;;;;;;;-5.62;100.00;140913.77;110567;1267;23055;-66
2024/02/16 07:06:48;;;;;;;48.70;24.60;;;;;;;-5.59;100.00;140919.94;110716;1266;22305;-61
2024/02/16 07:09:36;;;;;;;44.90;24.40;;;;;;;-5.62;100.00;140913.52;110571;1260;22322;-68
2024/02/16 07:12:23;;;;;;;50.30;27.10;;;;;;;-5.63;100.00;140910.30;110574;1269;22200;-61
2024/02/16 07:15:09;;;;;;;52.70;26.10;;;;;;;-5.65;100.00;140906.84;110582;1266;22965;-61
2024/02/16 07:17:55;;;;;;;47.90;26.40;;;;;;;-5.61;100.00;140916.73;110725;1256;22120;-68
2024/02/16 07:20:41;;;;;;;47.30;24.90;;;;;;;-5.50;100.00;140943.42;110551;1274;22156;-63
2024/02/16 07:23:28;;;;;;;50.40;24.30;;;;;;;-5.48;100.00;140946.88;110567;1275;22174;-65
2024/02/16 07:26:16;;;;;;;46.90;24.80;;;;;;;-5.47;100.00;140949.39;110713;1266;22737;-63
2024/02/16 07:29:03;;;;;;;47.30;25.00;;;;;;;-5.50;100.00;140942.42;110559;1274;22135;-67
2024/02/16 07:31:51;;;;;;;55.20;29.80;;;;;;;-5.44;100.00;140956.03;110581;1270;22786;-66
2024/02/16 07:34:38;;;;;;;47.70;27.50;;;;;;;-5.35;100.00;140978.05;110637;1257;22433;-63
2024/02/16 07:37:24;;;;;;;48.10;29.10;;;;;;;-5.30;100.00;140991.17;110566;1267;22390;-63
2024/02/16 07:40:11;;;;;;;48.00;27.80;;;;;;;-5.19;100.00;141017.66;110478;1268;22969;-63
2024/02/16 07:42:57;;;;;;;42.80;25.00;;;;;;;-5.18;100.00;141020.36;110503;1263;23040;-68
2024/02/16 07:45:44;;;;;;;41.80;25.10;;;;;;;-5.21;100.00;141013.42;110515;1263;23120;-66
2024/02/16 07:48:31;;;;;;;44.00;25.30;;;;;;;-5.31;100.00;140989.69;110542;1260;22179;-65
2024/02/16 07:51:17;;;;;;;42.90;25.00;;;;;;;-5.36;100.00;140976.83;110460;1260;22384;-64
2024/02/16 07:54:04;;;;;;;41.10;24.00;;;;;;;-5.36;100.00;140975.83;110507;1256;22397;-65
2024/02/16 07:56:50;;;;;;;35.20;23.00;;;;;;;-5.38;100.00;140971.38;110486;1267;22344;-65
2024/02/16 07:59:38;;;;;;;38.20;23.10;;;;;;;-5.36;100.00;140977.55;110511;1265;23001;-66
2024/02/16 08:02:24;;;;;;;34.30;20.60;;;;;;;-5.25;100.00;141002.78;110519;1256;22326;-67
2024/02/16 08:05:13;;;;;;;37.10;21.20;;;;;;;-5.06;100.00;141048.81;110500;1260;22186;-66
2024/02/16 08:07:59;;;;;;;39.40;24.50;;;;;;;-5.03;100.00;141056.00;110530;1260;22318;-65
2024/02/16 08:10:46;;;;;;;39.10;21.10;;;;;;;-5.04;100.00;141054.03;110502;1256;22412;-63
2024/02/16 08:13:32;;;;;;;34.70;21.30;;;;;;;-5.03;100.00;141055.98;110464;1270;22374;-65
2024/02/16 08:16:18;;;;;;;31.40;19.60;;;;;;;-4.96;100.00;141071.09;110487;1272;22334;-61
2024/02/16 08:19:04;;;;;;;32.60;21.80;;;;;;;-4.97;100.00;141069.09;110489;1271;23299;-63
2024/02/16 08:21:51;;;;;;;40.70;23.10;;;;;;;-5.02;100.00;141058.22;110556;1267;22341;-64
2024/02/16 08:24:37;;;;;;;34.70;20.70;;;;;;;-5.11;100.00;141038.42;110582;1263;22418;-64
2024/02/16 08:27:24;;;;;;;37.30;23.70;;;;;;;-5.16;100.00;141024.33;110604;1260;22990;-61
2024/02/16 08:30:11;;;;;;;46.20;26.80;;;;;;;-5.17;100.00;141021.09;110566;1263;22200;-64
2024/02/16 08:32:58;;;;;;;55.00;28.60;;;;;;;-5.25;100.00;141002.78;110576;1271;22625;-61
2024/02/16 08:35:45;;;;;;;56.20;28.90;;;;;;;-5.30;100.00;140990.42;110535;1251;22359;-61
2024/02/16 08:38:31;;;;;;;55.80;30.70;;;;;;;-5.36;100.00;140976.58;110569;1263;22402;-64
2024/02/16 08:41:17;;;;;;;59.90;30.10;;;;;;;-5.46;100.00;140952.09;110558;1257;22312;-65
2024/02/16 08:44:04;;;;;;;51.20;27.50;;;;;;;-5.65;100.00;140905.59;110416;1266;22241;-63
2024/02/16 08:46:50;;;;;;;43.40;24.40;;;;;;;-5.78;100.00;140873.70;110544;1264;22343;-64
2024/02/16 08:49:38;;;;;;;42.00;23.40;;;;;;;-5.90;100.00;140845.03;110595;1257;22233;-64
2024/02/16 08:52:26;;;;;;;46.10;24.60;;;;;;;-6.00;100.00;140822.09;110615;1257;22344;-62
2024/02/16 08:55:12;;;;;;;50.50;27.00;;;;;;;-5.98;100.00;140826.53;110556;1263;22362;-67
2024/02/16 08:57:59;;;;;;;45.60;23.30;;;;;;;-5.92;100.00;140841.09;110529;1267;22193;-66
2024/02/16 09:00:46;;;;;;;50.60;26.60;;;;;;;-5.92;100.00;140841.56;110475;1260;22312;-62
2024/02/16 09:03:36;;;;;;;51.30;27.90;;;;;;;-5.93;100.00;140839.59;110553;1256;22262;-61
2024/02/16 09:06:23;;;;;;;48.90;26.70;;;;;;;-5.89;100.00;140848.97;110550;1265;22317;-61
2024/02/16 09:09:10;;;;;;;52.20;26.10;;;;;;;-5.87;100.00;140853.45;110604;1263;22200;-64
2024/02/16 09:11:57;;;;;;;54.00;28.00;;;;;;;-5.86;100.00;140855.41;110554;1261;22395;-67
2024/02/16 09:14:44;;;;;;;41.60;24.10;;;;;;;-5.82;100.00;140865.03;110558;1263;22356;-66
2024/02/16 09:17:30;;;;;;;42.60;23.30;;;;;;;-5.86;100.00;140855.41;110565;1261;22217;-66
2024/02/16 09:20:22;;;;;;;37.60;22.00;;;;;;;-5.82;100.00;140865.30;110469;1256;22362;-63
2024/02/16 09:23:10;;;;;;;44.40;26.10;;;;;;;-5.78;100.00;140874.70;110666;1263;22373;-64
2024/02/16 09:25:56;;;;;;;44.90;24.70;;;;;;;-5.77;100.00;140876.66;110585;1270;22330;-65
2024/02/16 09:28:42;;;;;;;41.30;23.10;;;;;;;-5.82;100.00;140864.78;110536;1263;22905;-64
2024/02/16 09:31:28;;;;;;;39.00;20.90;;;;;;;-5.78;100.00;140874.17;110538;1257;23002;-64
2024/02/16 09:34:15;;;;;;;38.20;21.90;;;;;;;-5.69;100.00;140896.92;110422;1263;154065;-63
2024/02/16 09:37:03;;;;;;;28.60;17.10;;;;;;;-5.61;100.00;140915.47;110651;1257;22221;-62
2024/02/16 09:39:49;;;;;;;40.50;23.00;;;;;;;-5.59;100.00;140920.92;110430;1266;22342;-62
2024/02/16 09:42:38;;;;;;;37.40;22.10;;;;;;;-5.53;100.00;140934.78;110570;1263;23523;-65
2024/02/16 09:45:25;;;;;;;38.30;21.50;;;;;;;-5.42;100.00;140961.97;110479;1268;22171;-61
2024/02/16 09:48:13;;;;;;;38.50;21.80;;;;;;;-5.21;100.00;141011.72;110491;1264;22854;-64
2024/02/16 09:50:59;;;;;;;43.00;23.50;;;;;;;-5.07;100.00;141046.34;110570;1257;22949;-65
2024/02/16 09:53:57;;;;;;;39.30;22.80;;;;;;;-4.84;100.00;141102.25;110610;1263;22313;-63
2024/02/16 09:56:46;;;;;;;38.90;22.40;;;;;;;-4.54;100.00;141175.52;110658;1263;22329;-64
2024/02/16 09:59:32;;;;;;;32.30;19.70;;;;;;;-4.37;100.00;141215.66;110584;1256;22245;-59
2024/02/16 10:02:19;;;;;;;31.80;20.00;;;;;;;-4.37;100.00;141217.14;110538;1272;22337;-63
2024/02/16 10:05:17;;;;;;;31.80;18.40;;;;;;;-4.29;100.00;141235.69;110565;1267;22179;-63
2024/02/16 10:08:13;;;;;;;41.10;22.80;;;;;;;-4.12;100.00;141276.05;110560;1264;22182;-63
2024/02/16 10:11:04;;;;;;;40.10;23.30;;;;;;;-3.89;100.00;141332.03;110648;1263;22894;-67
2024/02/16 10:13:58;;;;;;;42.20;23.00;;;;;;;-3.81;100.00;141351.84;110606;1263;22375;-66
2024/02/16 10:16:47;;;;;;;47.90;27.30;;;;;;;-4.00;100.00;141305.77;110571;1256;22286;-63
2024/02/16 10:19:42;;;;;;;47.90;26.50;;;;;;;-4.19;100.00;141260.20;110642;1256;22397;-62
2024/02/16 10:22:29;;;;;;;50.40;25.40;;;;;;;-4.20;100.00;141257.47;110539;1257;22387;-63
2024/02/16 10:25:16;;;;;;;41.70;23.90;;;;;;;-4.24;100.00;141247.33;110588;1267;22963;-65
2024/02/16 10:28:07;;;;;;;47.20;27.20;;;;;;;-4.30;100.00;141231.47;110517;1264;22844;-64
2024/02/16 10:31:05;;;;;;;44.50;25.20;;;;;;;-4.33;100.00;141226.53;110591;1257;22983;-64
2024/02/16 10:33:52;;;;;;;41.70;25.20;;;;;;;-4.31;100.00;141231.22;110545;1267;23094;-64
2024/02/16 10:36:41;;;;;;;47.90;27.60;;;;;;;-4.26;100.00;141241.64;110580;1263;23105;-64
2024/02/16 10:39:29;;;;;;;47.20;27.40;;;;;;;-4.22;100.00;141252.03;110635;1267;22403;-63
2024/02/16 10:42:19;;;;;;;43.40;25.10;;;;;;;-4.22;100.00;141253.27;110591;1267;22364;-64
2024/02/16 10:45:06;;;;;;;43.80;24.60;;;;;;;-4.26;100.00;141243.38;110561;1257;22393;-60
2024/02/16 10:47:53;;;;;;;45.90;25.10;;;;;;;-4.13;100.00;141273.34;110589;1266;23042;-61
2024/02/16 10:50:41;;;;;;;48.20;25.80;;;;;;;-4.00;100.00;141304.78;110601;1263;22219;-63
2024/02/16 10:53:30;;;;;;;44.50;26.00;;;;;;;-3.88;100.00;141333.28;110515;1253;22230;-63
2024/02/16 10:56:16;;;;;;;46.30;26.50;;;;;;;-3.80;100.00;141354.81;110620;1267;22329;-64
2024/02/16 10:59:03;;;;;;;47.30;26.40;;;;;;;-3.80;100.00;141353.58;110625;1267;22148;-63
2024/02/16 11:02:00;;;;;;;53.90;27.40;;;;;;;-3.86;100.00;141338.95;110535;1268;23160;-62
2024/02/16 11:04:49;;;;;;;41.90;25.70;;;;;;;-3.86;100.00;141338.72;110629;1260;22325;-61
2024/02/16 11:07:35;;;;;;;50.50;26.90;;;;;;;-3.94;100.00;141319.89;110573;1257;22206;-62
2024/02/16 11:10:22;;;;;;;48.40;28.00;;;;;;;-4.01;100.00;141303.55;110548;1267;22255;-63
2024/02/16 11:13:09;;;;;;;46.70;29.00;;;;;;;-4.08;100.00;141285.72;110565;1267;22310;-63
2024/02/16 11:16:03;;;;;;;47.00;28.20;;;;;;;-4.05;100.00;141292.89;110495;1261;22378;-64
2024/02/16 11:18:51;;;;;;;54.30;30.50;;;;;;;-3.89;100.00;141332.75;110694;1265;22176;-63
2024/02/16 11:21:37;;;;;;;52.50;31.30;;;;;;;-3.77;100.00;141362.00;110703;1273;22182;-62
2024/02/16 11:24:31;;;;;;;57.80;32.80;;;;;;;-3.73;100.00;141372.41;110548;1267;22335;-65
2024/02/16 11:27:21;;;;;;;51.90;32.70;;;;;;;-3.71;100.00;141375.61;110545;1264;22215;-65
2024/02/16 11:30:12;;;;;;;56.40;33.80;;;;;;;-3.75;100.00;141365.95;110579;1254;22208;-63
2024/02/16 11:32:58;;;;;;;58.40;34.10;;;;;;;-3.76;100.00;141365.22;110575;1257;22328;-64
2024/02/16 11:35:59;;;;;;;56.10;33.30;;;;;;;-3.76;100.00;141364.97;110581;1257;22217;-62
2024/02/16 11:38:46;;;;;;;65.40;35.30;;;;;;;-3.75;100.00;141365.97;110557;1260;22099;-65
2024/02/16 11:41:32;;;;;;;58.00;33.80;;;;;;;-3.71;100.00;141374.64;110586;1258;22349;-63
2024/02/16 11:44:19;;;;;;;57.40;33.90;;;;;;;-3.67;100.00;141384.30;110505;1271;22359;-63
2024/02/16 11:47:12;;;;;;;62.40;33.90;;;;;;;-3.66;100.00;141387.25;110707;1256;22209;-66
2024/02/16 11:50:10;;;;;;;64.60;37.30;;;;;;;-3.48;100.00;141430.14;110671;1272;22869;-66
2024/02/16 11:52:58;;;;;;;69.20;39.90;;;;;;;-3.28;100.00;141479.70;110541;1254;22377;-64
2024/02/16 11:55:48;;;;;;;68.10;39.70;;;;;;;-3.10;100.00;141522.33;110553;1255;22153;-65
2024/02/16 11:58:36;;;;;;;64.00;37.20;;;;;;;-3.02;100.00;141542.91;110546;1254;22349;-60
2024/02/16 12:01:24;;;;;;;63.00;34.20;;;;;;;-2.94;100.00;141561.75;110550;1261;22905;-64
2024/02/16 12:04:21;;;;;;;64.80;35.80;;;;;;;-3.11;100.00;141521.84;110553;1271;22838;-66
2024/02/16 12:07:08;;;;;;;59.20;34.10;;;;;;;-3.20;100.00;141499.53;110540;1273;22298;-65
2024/02/16 12:09:59;;;;;;;65.00;32.40;;;;;;;-3.23;100.00;141492.84;110564;1257;22225;-64
2024/02/16 12:12:47;;;;;;;61.20;34.00;;;;;;;-3.35;100.00;141463.34;110559;1273;22117;-65
2024/02/16 12:15:34;;;;;;;63.90;34.70;;;;;;;-3.53;100.00;141419.47;110645;1267;22214;-69
2024/02/16 12:18:21;;;;;;;68.30;37.50;;;;;;;-3.75;100.00;141365.47;110713;1251;22224;-64
2024/02/16 12:21:09;;;;;;;64.20;35.50;;;;;;;-3.88;100.00;141333.75;110574;1256;22315;-67
2024/02/16 12:23:55;;;;;;;67.60;38.20;;;;;;;-3.98;100.00;141310.72;110623;1257;22176;-65
2024/02/16 12:26:42;;;;;;;65.70;39.00;;;;;;;-4.08;100.00;141286.70;110584;1259;22316;-66